sensor_id;sensor_type;location;lat;lon;timestamp;P1;durP1;ratioP1;P2;durP2;ratioP2
70303;SDS011;57712;48.752;11.348;2022-09-03T00:01:57;5.33;;;1.80;;
70303;SDS011;57712;48.752;11.348;2022-09-03T00:05:13;4.18;;;1.73;;
70303;SDS011;57712;48.752;11.348;2022-09-03T00:07:29;4.30;;;2.35;;
70303;SDS011;57712;48.752;11.348;2022-09-03T00:10:07;4.28;;;1.80;;
70303;SDS011;57712;48.752;11.348;2022-09-03T00:12:41;4.30;;;1.80;;
70303;SDS011;57712;48.752;11.348;2022-09-03T00:15:11;5.23;;;2.07;;
70303;SDS011;57712;48.752;11.348;2022-09-03T00:17:45;4.85;;;1.95;;
70303;SDS011;57712;48.752;11.348;2022-09-03T00:22:47;4.70;;;1.73;;
70303;SDS011;57712;48.752;11.348;2022-09-03T00:25:39;4.90;;;2.42;;
70303;SDS011;57712;48.752;11.348;2022-09-03T00:28:12;6.03;;;2.03;;
70303;SDS011;57712;48.752;11.348;2022-09-03T00:30:45;4.85;;;2.10;;
70303;SDS011;57712;48.752;11.348;2022-09-03T00:33:22;4.57;;;2.13;;
70303;SDS011;57712;48.752;11.348;2022-09-03T00:38:31;4.82;;;2.72;;
70303;SDS011;57712;48.752;11.348;2022-09-03T00:41:07;5.17;;;2.40;;
70303;SDS011;57712;48.752;11.348;2022-09-03T00:57:29;5.65;;;2.28;;
70303;SDS011;57712;48.752;11.348;2022-09-03T01:00:14;6.03;;;2.38;;
70303;SDS011;57712;48.752;11.348;2022-09-03T01:08:27;4.10;;;1.90;;
70303;SDS011;57712;48.752;11.348;2022-09-03T01:11:19;4.70;;;2.00;;
70303;SDS011;57712;48.752;11.348;2022-09-03T01:14:03;4.25;;;2.08;;
70303;SDS011;57712;48.752;11.348;2022-09-03T01:16:45;5.60;;;2.10;;
70303;SDS011;57712;48.752;11.348;2022-09-03T01:30:18;4.43;;;2.35;;
70303;SDS011;57712;48.752;11.348;2022-09-03T01:35:56;4.27;;;2.10;;
70303;SDS011;57712;48.752;11.348;2022-09-03T01:38:48;4.60;;;2.05;;
70303;SDS011;57712;48.752;11.348;2022-09-03T01:49:55;4.17;;;2.00;;
70303;SDS011;57712;48.752;11.348;2022-09-03T01:57:41;5.25;;;2.30;;
70303;SDS011;57712;48.752;11.348;2022-09-03T02:00:18;4.28;;;1.80;;
70303;SDS011;57712;48.752;11.348;2022-09-03T02:02:48;4.40;;;1.70;;
70303;SDS011;57712;48.752;11.348;2022-09-03T02:07:57;4.90;;;2.05;;
70303;SDS011;57712;48.752;11.348;2022-09-03T02:13:19;5.25;;;2.40;;
70303;SDS011;57712;48.752;11.348;2022-09-03T02:16:11;4.90;;;1.87;;
70303;SDS011;57712;48.752;11.348;2022-09-03T02:18:42;4.38;;;2.33;;
70303;SDS011;57712;48.752;11.348;2022-09-03T02:21:13;4.85;;;1.98;;
70303;SDS011;57712;48.752;11.348;2022-09-03T02:23:43;6.20;;;4.13;;
70303;SDS011;57712;48.752;11.348;2022-09-03T02:26:10;4.57;;;2.03;;
70303;SDS011;57712;48.752;11.348;2022-09-03T02:28:38;4.67;;;1.40;;
70303;SDS011;57712;48.752;11.348;2022-09-03T02:31:04;4.55;;;1.98;;
70303;SDS011;57712;48.752;11.348;2022-09-03T02:33:34;4.05;;;1.45;;
70303;SDS011;57712;48.752;11.348;2022-09-03T02:36:04;5.22;;;2.03;;
70303;SDS011;57712;48.752;11.348;2022-09-03T02:38:33;4.43;;;1.85;;
70303;SDS011;57712;48.752;11.348;2022-09-03T02:41:00;4.77;;;1.70;;
70303;SDS011;57712;48.752;11.348;2022-09-03T02:46:04;4.28;;;1.80;;
70303;SDS011;57712;48.752;11.348;2022-09-03T02:48:34;4.40;;;2.38;;
70303;SDS011;57712;48.752;11.348;2022-09-03T02:51:01;6.35;;;2.35;;
70303;SDS011;57712;48.752;11.348;2022-09-03T02:53:39;5.17;;;2.37;;
70303;SDS011;57712;48.752;11.348;2022-09-03T02:56:05;5.40;;;2.13;;
70303;SDS011;57712;48.752;11.348;2022-09-03T02:58:32;5.30;;;2.05;;
70303;SDS011;57712;48.752;11.348;2022-09-03T03:00:59;5.05;;;2.20;;
70303;SDS011;57712;48.752;11.348;2022-09-03T03:03:25;4.45;;;2.13;;
70303;SDS011;57712;48.752;11.348;2022-09-03T03:05:54;5.20;;;2.17;;
70303;SDS011;57712;48.752;11.348;2022-09-03T03:08:24;5.00;;;1.80;;
70303;SDS011;57712;48.752;11.348;2022-09-03T03:10:54;4.40;;;1.95;;
70303;SDS011;57712;48.752;11.348;2022-09-03T03:13:27;4.28;;;2.22;;
70303;SDS011;57712;48.752;11.348;2022-09-03T03:15:59;4.20;;;2.08;;
70303;SDS011;57712;48.752;11.348;2022-09-03T03:18:31;5.63;;;1.77;;
70303;SDS011;57712;48.752;11.348;2022-09-03T03:21:03;4.80;;;2.22;;
70303;SDS011;57712;48.752;11.348;2022-09-03T03:23:34;5.85;;;2.25;;
70303;SDS011;57712;48.752;11.348;2022-09-03T03:26:05;4.38;;;1.90;;
70303;SDS011;57712;48.752;11.348;2022-09-03T03:28:33;4.55;;;2.55;;
70303;SDS011;57712;48.752;11.348;2022-09-03T03:31:04;5.00;;;2.07;;
70303;SDS011;57712;48.752;11.348;2022-09-03T03:33:33;4.88;;;2.10;;
70303;SDS011;57712;48.752;11.348;2022-09-03T03:36:02;4.45;;;2.05;;
70303;SDS011;57712;48.752;11.348;2022-09-03T03:38:34;5.20;;;2.33;;
70303;SDS011;57712;48.752;11.348;2022-09-03T03:41:09;4.53;;;2.00;;
70303;SDS011;57712;48.752;11.348;2022-09-03T03:43:37;4.77;;;2.33;;
70303;SDS011;57712;48.752;11.348;2022-09-03T03:46:04;4.60;;;2.03;;
70303;SDS011;57712;48.752;11.348;2022-09-03T03:48:31;4.45;;;2.10;;
70303;SDS011;57712;48.752;11.348;2022-09-03T03:51:01;5.32;;;2.58;;
70303;SDS011;57712;48.752;11.348;2022-09-03T03:53:30;4.68;;;2.40;;
70303;SDS011;57712;48.752;11.348;2022-09-03T03:55:57;4.20;;;2.20;;
70303;SDS011;57712;48.752;11.348;2022-09-03T03:58:29;5.70;;;2.25;;
70303;SDS011;57712;48.752;11.348;2022-09-03T04:01:07;7.30;;;2.40;;
70303;SDS011;57712;48.752;11.348;2022-09-03T04:03:39;5.93;;;2.03;;
70303;SDS011;57712;48.752;11.348;2022-09-03T04:06:07;4.75;;;2.60;;
70303;SDS011;57712;48.752;11.348;2022-09-03T04:08:36;5.43;;;2.67;;
70303;SDS011;57712;48.752;11.348;2022-09-03T04:11:05;5.63;;;2.72;;
70303;SDS011;57712;48.752;11.348;2022-09-03T04:13:35;5.00;;;2.55;;
70303;SDS011;57712;48.752;11.348;2022-09-03T04:16:03;6.05;;;2.38;;
70303;SDS011;57712;48.752;11.348;2022-09-03T04:18:31;5.28;;;2.83;;
70303;SDS011;57712;48.752;11.348;2022-09-03T04:20:59;4.40;;;2.00;;
70303;SDS011;57712;48.752;11.348;2022-09-03T04:23:30;5.43;;;2.45;;
70303;SDS011;57712;48.752;11.348;2022-09-03T04:25:58;5.55;;;2.22;;
70303;SDS011;57712;48.752;11.348;2022-09-03T04:28:25;4.50;;;2.40;;
70303;SDS011;57712;48.752;11.348;2022-09-03T04:30:52;4.45;;;2.55;;
70303;SDS011;57712;48.752;11.348;2022-09-03T04:33:19;5.60;;;2.67;;
70303;SDS011;57712;48.752;11.348;2022-09-03T04:35:46;4.53;;;2.25;;
70303;SDS011;57712;48.752;11.348;2022-09-03T04:38:12;5.10;;;2.90;;
70303;SDS011;57712;48.752;11.348;2022-09-03T04:40:39;7.07;;;2.47;;
70303;SDS011;57712;48.752;11.348;2022-09-03T04:43:05;5.13;;;2.40;;
70303;SDS011;57712;48.752;11.348;2022-09-03T04:45:31;4.80;;;2.20;;
70303;SDS011;57712;48.752;11.348;2022-09-03T04:47:59;4.68;;;2.22;;
70303;SDS011;57712;48.752;11.348;2022-09-03T04:50:31;8.52;;;3.00;;
70303;SDS011;57712;48.752;11.348;2022-09-03T04:53:02;4.78;;;2.33;;
70303;SDS011;57712;48.752;11.348;2022-09-03T04:55:34;5.03;;;2.42;;
70303;SDS011;57712;48.752;11.348;2022-09-03T04:58:02;4.93;;;2.13;;
70303;SDS011;57712;48.752;11.348;2022-09-03T05:00:29;6.93;;;2.53;;
70303;SDS011;57712;48.752;11.348;2022-09-03T05:02:59;4.15;;;2.10;;
70303;SDS011;57712;48.752;11.348;2022-09-03T05:05:26;5.10;;;2.33;;
70303;SDS011;57712;48.752;11.348;2022-09-03T05:07:52;5.43;;;2.60;;
70303;SDS011;57712;48.752;11.348;2022-09-03T05:10:23;4.73;;;2.03;;
70303;SDS011;57712;48.752;11.348;2022-09-03T05:12:56;5.45;;;2.13;;
70303;SDS011;57712;48.752;11.348;2022-09-03T05:15:28;5.55;;;2.03;;
70303;SDS011;57712;48.752;11.348;2022-09-03T05:17:57;5.63;;;2.30;;
70303;SDS011;57712;48.752;11.348;2022-09-03T05:20:25;5.10;;;2.80;;
70303;SDS011;57712;48.752;11.348;2022-09-03T05:22:51;5.57;;;1.97;;
70303;SDS011;57712;48.752;11.348;2022-09-03T05:25:18;4.95;;;2.35;;
70303;SDS011;57712;48.752;11.348;2022-09-03T05:27:45;5.40;;;2.33;;
70303;SDS011;57712;48.752;11.348;2022-09-03T05:30:12;4.97;;;2.42;;
70303;SDS011;57712;48.752;11.348;2022-09-03T05:32:39;4.53;;;2.20;;
70303;SDS011;57712;48.752;11.348;2022-09-03T05:35:07;5.63;;;2.90;;
70303;SDS011;57712;48.752;11.348;2022-09-03T05:37:35;5.95;;;2.92;;
70303;SDS011;57712;48.752;11.348;2022-09-03T05:40:03;5.90;;;2.75;;
70303;SDS011;57712;48.752;11.348;2022-09-03T05:42:30;7.07;;;2.58;;
70303;SDS011;57712;48.752;11.348;2022-09-03T05:44:58;5.30;;;2.65;;
70303;SDS011;57712;48.752;11.348;2022-09-03T05:47:25;5.40;;;2.63;;
70303;SDS011;57712;48.752;11.348;2022-09-03T05:49:52;5.30;;;3.17;;
70303;SDS011;57712;48.752;11.348;2022-09-03T05:52:18;7.50;;;3.40;;
70303;SDS011;57712;48.752;11.348;2022-09-03T05:54:46;6.85;;;3.38;;
70303;SDS011;57712;48.752;11.348;2022-09-03T05:57:13;8.20;;;3.42;;
70303;SDS011;57712;48.752;11.348;2022-09-03T05:59:39;5.93;;;2.83;;
70303;SDS011;57712;48.752;11.348;2022-09-03T06:02:06;9.30;;;3.10;;
70303;SDS011;57712;48.752;11.348;2022-09-03T06:04:32;7.32;;;3.70;;
70303;SDS011;57712;48.752;11.348;2022-09-03T06:06:59;12.60;;;3.75;;
70303;SDS011;57712;48.752;11.348;2022-09-03T06:09:26;10.07;;;3.72;;
70303;SDS011;57712;48.752;11.348;2022-09-03T06:11:52;8.03;;;3.67;;
70303;SDS011;57712;48.752;11.348;2022-09-03T06:14:22;8.05;;;3.78;;
70303;SDS011;57712;48.752;11.348;2022-09-03T06:16:49;8.85;;;4.40;;
70303;SDS011;57712;48.752;11.348;2022-09-03T06:19:17;8.98;;;3.33;;
70303;SDS011;57712;48.752;11.348;2022-09-03T06:21:44;6.95;;;3.25;;
70303;SDS011;57712;48.752;11.348;2022-09-03T06:24:14;8.13;;;3.00;;
70303;SDS011;57712;48.752;11.348;2022-09-03T06:26:46;5.65;;;2.92;;
70303;SDS011;57712;48.752;11.348;2022-09-03T06:29:14;7.50;;;3.00;;
70303;SDS011;57712;48.752;11.348;2022-09-03T06:31:41;6.38;;;3.20;;
70303;SDS011;57712;48.752;11.348;2022-09-03T06:34:08;5.45;;;3.08;;
70303;SDS011;57712;48.752;11.348;2022-09-03T06:36:34;6.37;;;3.17;;
70303;SDS011;57712;48.752;11.348;2022-09-03T06:39:01;5.60;;;2.85;;
70303;SDS011;57712;48.752;11.348;2022-09-03T06:41:29;5.30;;;3.00;;
70303;SDS011;57712;48.752;11.348;2022-09-03T06:44:00;5.63;;;2.60;;
70303;SDS011;57712;48.752;11.348;2022-09-03T06:46:38;5.45;;;2.63;;
70303;SDS011;57712;48.752;11.348;2022-09-03T06:49:09;5.57;;;2.77;;
70303;SDS011;57712;48.752;11.348;2022-09-03T06:51:36;4.50;;;2.47;;
70303;SDS011;57712;48.752;11.348;2022-09-03T06:54:05;5.97;;;2.83;;
70303;SDS011;57712;48.752;11.348;2022-09-03T06:56:33;6.18;;;2.40;;
70303;SDS011;57712;48.752;11.348;2022-09-03T06:59:06;5.72;;;3.10;;
70303;SDS011;57712;48.752;11.348;2022-09-03T07:01:34;6.10;;;2.93;;
70303;SDS011;57712;48.752;11.348;2022-09-03T07:04:07;7.88;;;2.80;;
70303;SDS011;57712;48.752;11.348;2022-09-03T07:06:37;6.57;;;3.20;;
70303;SDS011;57712;48.752;11.348;2022-09-03T07:09:06;5.18;;;2.67;;
70303;SDS011;57712;48.752;11.348;2022-09-03T07:11:34;7.07;;;3.25;;
70303;SDS011;57712;48.752;11.348;2022-09-03T07:14:02;5.17;;;2.83;;
70303;SDS011;57712;48.752;11.348;2022-09-03T07:16:33;5.43;;;2.92;;
70303;SDS011;57712;48.752;11.348;2022-09-03T07:19:02;6.57;;;3.30;;
70303;SDS011;57712;48.752;11.348;2022-09-03T07:21:30;5.55;;;2.90;;
70303;SDS011;57712;48.752;11.348;2022-09-03T07:23:59;5.50;;;3.40;;
70303;SDS011;57712;48.752;11.348;2022-09-03T07:26:26;5.30;;;2.83;;
70303;SDS011;57712;48.752;11.348;2022-09-03T07:28:57;5.38;;;3.15;;
70303;SDS011;57712;48.752;11.348;2022-09-03T07:31:31;5.72;;;2.90;;
70303;SDS011;57712;48.752;11.348;2022-09-03T07:34:04;5.32;;;2.65;;
70303;SDS011;57712;48.752;11.348;2022-09-03T07:36:39;7.95;;;2.83;;
70303;SDS011;57712;48.752;11.348;2022-09-03T07:39:08;6.30;;;2.90;;
70303;SDS011;57712;48.752;11.348;2022-09-03T07:41:39;6.72;;;3.10;;
70303;SDS011;57712;48.752;11.348;2022-09-03T07:44:11;6.10;;;2.72;;
70303;SDS011;57712;48.752;11.348;2022-09-03T07:46:40;5.20;;;2.58;;
70303;SDS011;57712;48.752;11.348;2022-09-03T07:49:09;6.85;;;3.65;;
70303;SDS011;57712;48.752;11.348;2022-09-03T07:51:37;5.80;;;2.90;;
70303;SDS011;57712;48.752;11.348;2022-09-03T07:54:05;5.53;;;2.50;;
70303;SDS011;57712;48.752;11.348;2022-09-03T07:56:35;6.05;;;3.20;;
70303;SDS011;57712;48.752;11.348;2022-09-03T07:59:02;5.85;;;2.92;;
70303;SDS011;57712;48.752;11.348;2022-09-03T08:01:30;5.00;;;2.72;;
70303;SDS011;57712;48.752;11.348;2022-09-03T08:03:58;6.00;;;2.63;;
70303;SDS011;57712;48.752;11.348;2022-09-03T08:06:26;5.80;;;2.90;;
70303;SDS011;57712;48.752;11.348;2022-09-03T08:08:57;6.15;;;2.80;;
70303;SDS011;57712;48.752;11.348;2022-09-03T08:11:30;6.03;;;2.90;;
70303;SDS011;57712;48.752;11.348;2022-09-03T08:13:59;6.07;;;3.45;;
70303;SDS011;57712;48.752;11.348;2022-09-03T08:16:28;6.77;;;3.07;;
70303;SDS011;57712;48.752;11.348;2022-09-03T08:18:57;5.57;;;2.90;;
70303;SDS011;57712;48.752;11.348;2022-09-03T08:21:25;27.38;;;7.35;;
70303;SDS011;57712;48.752;11.348;2022-09-03T08:23:53;6.40;;;3.17;;
70303;SDS011;57712;48.752;11.348;2022-09-03T08:26:31;6.82;;;3.05;;
70303;SDS011;57712;48.752;11.348;2022-09-03T08:28:59;5.60;;;3.07;;
70303;SDS011;57712;48.752;11.348;2022-09-03T08:31:26;6.38;;;2.92;;
70303;SDS011;57712;48.752;11.348;2022-09-03T08:33:55;7.35;;;3.22;;
70303;SDS011;57712;48.752;11.348;2022-09-03T08:36:27;7.40;;;2.90;;
70303;SDS011;57712;48.752;11.348;2022-09-03T08:38:56;5.43;;;2.63;;
70303;SDS011;57712;48.752;11.348;2022-09-03T08:47:21;6.32;;;3.10;;
70303;SDS011;57712;48.752;11.348;2022-09-03T08:52:41;5.28;;;2.80;;
70303;SDS011;57712;48.752;11.348;2022-09-03T08:58:05;7.22;;;3.60;;
70303;SDS011;57712;48.752;11.348;2022-09-03T09:03:30;6.05;;;2.60;;
70303;SDS011;57712;48.752;11.348;2022-09-03T09:06:12;5.43;;;3.30;;
70303;SDS011;57712;48.752;11.348;2022-09-03T09:17:03;4.95;;;2.88;;
70303;SDS011;57712;48.752;11.348;2022-09-03T09:22:37;5.43;;;2.60;;
70303;SDS011;57712;48.752;11.348;2022-09-03T09:25:11;6.70;;;3.00;;
70303;SDS011;57712;48.752;11.348;2022-09-03T09:28:00;5.05;;;3.22;;
70303;SDS011;57712;48.752;11.348;2022-09-03T09:30:29;7.00;;;3.15;;
70303;SDS011;57712;48.752;11.348;2022-09-03T09:33:04;5.50;;;3.13;;
70303;SDS011;57712;48.752;11.348;2022-09-03T09:35:30;5.17;;;3.13;;
70303;SDS011;57712;48.752;11.348;2022-09-03T09:37:57;7.18;;;2.63;;
70303;SDS011;57712;48.752;11.348;2022-09-03T09:40:29;5.47;;;3.42;;
70303;SDS011;57712;48.752;11.348;2022-09-03T09:45:45;5.20;;;2.97;;
70303;SDS011;57712;48.752;11.348;2022-09-03T09:48:25;6.87;;;3.43;;
70303;SDS011;57712;48.752;11.348;2022-09-03T09:51:30;6.78;;;3.63;;
70303;SDS011;57712;48.752;11.348;2022-09-03T09:54:00;5.43;;;3.05;;
70303;SDS011;57712;48.752;11.348;2022-09-03T09:56:27;5.80;;;3.00;;
70303;SDS011;57712;48.752;11.348;2022-09-03T09:59:28;5.93;;;3.72;;
70303;SDS011;57712;48.752;11.348;2022-09-03T10:01:47;6.73;;;2.63;;
70303;SDS011;57712;48.752;11.348;2022-09-03T10:06:55;6.22;;;3.88;;
70303;SDS011;57712;48.752;11.348;2022-09-03T10:09:26;5.75;;;3.05;;
70303;SDS011;57712;48.752;11.348;2022-09-03T10:17:51;5.40;;;3.55;;
70303;SDS011;57712;48.752;11.348;2022-09-03T10:23:23;7.03;;;3.67;;
70303;SDS011;57712;48.752;11.348;2022-09-03T10:25:59;5.22;;;3.20;;
70303;SDS011;57712;48.752;11.348;2022-09-03T10:28:38;7.53;;;3.27;;
70303;SDS011;57712;48.752;11.348;2022-09-03T10:36:52;7.05;;;3.67;;
70303;SDS011;57712;48.752;11.348;2022-09-03T10:48:00;6.45;;;3.60;;
70303;SDS011;57712;48.752;11.348;2022-09-03T10:56:11;6.03;;;3.53;;
70303;SDS011;57712;48.752;11.348;2022-09-03T10:59:00;5.82;;;3.88;;
70303;SDS011;57712;48.752;11.348;2022-09-03T11:07:02;5.60;;;3.80;;
70303;SDS011;57712;48.752;11.348;2022-09-03T11:12:34;6.32;;;3.65;;
70303;SDS011;57712;48.752;11.348;2022-09-03T11:15:06;6.13;;;3.92;;
70303;SDS011;57712;48.752;11.348;2022-09-03T11:20:33;5.90;;;4.10;;
70303;SDS011;57712;48.752;11.348;2022-09-03T11:23:02;6.27;;;3.57;;
70303;SDS011;57712;48.752;11.348;2022-09-03T11:25:36;6.28;;;4.05;;
70303;SDS011;57712;48.752;11.348;2022-09-03T11:28:17;6.70;;;4.45;;
70303;SDS011;57712;48.752;11.348;2022-09-03T11:31:03;6.30;;;3.88;;
70303;SDS011;57712;48.752;11.348;2022-09-03T11:33:40;6.55;;;4.05;;
70303;SDS011;57712;48.752;11.348;2022-09-03T11:36:50;6.00;;;3.70;;
70303;SDS011;57712;48.752;11.348;2022-09-03T11:41:58;7.72;;;4.80;;
70303;SDS011;57712;48.752;11.348;2022-09-03T11:44:42;7.00;;;4.43;;
70303;SDS011;57712;48.752;11.348;2022-09-03T11:47:39;6.78;;;4.53;;
70303;SDS011;57712;48.752;11.348;2022-09-03T11:50:23;9.33;;;4.20;;
70303;SDS011;57712;48.752;11.348;2022-09-03T11:52:52;8.20;;;5.00;;
70303;SDS011;57712;48.752;11.348;2022-09-03T11:55:52;7.80;;;4.50;;
70303;SDS011;57712;48.752;11.348;2022-09-03T12:00:50;6.45;;;4.13;;
70303;SDS011;57712;48.752;11.348;2022-09-03T12:03:22;6.30;;;3.80;;
70303;SDS011;57712;48.752;11.348;2022-09-03T12:11:36;5.65;;;3.38;;
70303;SDS011;57712;48.752;11.348;2022-09-03T12:19:40;6.10;;;3.50;;
70303;SDS011;57712;48.752;11.348;2022-09-03T12:22:14;6.40;;;3.63;;
70303;SDS011;57712;48.752;11.348;2022-09-03T12:24:42;5.78;;;3.72;;
70303;SDS011;57712;48.752;11.348;2022-09-03T12:27:23;6.32;;;3.45;;
70303;SDS011;57712;48.752;11.348;2022-09-03T12:29:56;7.23;;;3.60;;
70303;SDS011;57712;48.752;11.348;2022-09-03T12:32:26;7.05;;;3.33;;
70303;SDS011;57712;48.752;11.348;2022-09-03T12:34:57;5.60;;;3.60;;
70303;SDS011;57712;48.752;11.348;2022-09-03T12:37:35;6.53;;;3.28;;
70303;SDS011;57712;48.752;11.348;2022-09-03T12:40:24;6.32;;;3.97;;
70303;SDS011;57712;48.752;11.348;2022-09-03T12:42:54;6.77;;;3.43;;
70303;SDS011;57712;48.752;11.348;2022-09-03T12:45:56;5.90;;;3.20;;
70303;SDS011;57712;48.752;11.348;2022-09-03T12:48:38;5.72;;;3.95;;
70303;SDS011;57712;48.752;11.348;2022-09-03T12:51:38;6.07;;;3.22;;
70303;SDS011;57712;48.752;11.348;2022-09-03T12:54:20;5.20;;;3.30;;
70303;SDS011;57712;48.752;11.348;2022-09-03T12:56:49;5.60;;;3.80;;
70303;SDS011;57712;48.752;11.348;2022-09-03T12:59:21;8.90;;;3.88;;
70303;SDS011;57712;48.752;11.348;2022-09-03T13:01:51;6.32;;;3.45;;
70303;SDS011;57712;48.752;11.348;2022-09-03T13:04:22;6.10;;;3.88;;
70303;SDS011;57712;48.752;11.348;2022-09-03T13:07:01;6.68;;;3.78;;
70303;SDS011;57712;48.752;11.348;2022-09-03T13:09:32;5.77;;;3.27;;
70303;SDS011;57712;48.752;11.348;2022-09-03T13:12:03;6.55;;;3.20;;
70303;SDS011;57712;48.752;11.348;2022-09-03T13:14:49;5.88;;;2.88;;
70303;SDS011;57712;48.752;11.348;2022-09-03T13:17:21;5.82;;;3.80;;
70303;SDS011;57712;48.752;11.348;2022-09-03T13:20:07;5.22;;;3.47;;
70303;SDS011;57712;48.752;11.348;2022-09-03T13:22:58;6.77;;;3.10;;
70303;SDS011;57712;48.752;11.348;2022-09-03T13:25:33;5.90;;;3.47;;
70303;SDS011;57712;48.752;11.348;2022-09-03T13:30:42;5.82;;;3.60;;
70303;SDS011;57712;48.752;11.348;2022-09-03T13:33:20;6.20;;;3.20;;
70303;SDS011;57712;48.752;11.348;2022-09-03T13:38:32;4.70;;;2.60;;
70303;SDS011;57712;48.752;11.348;2022-09-03T13:41:15;5.90;;;4.10;;
70303;SDS011;57712;48.752;11.348;2022-09-03T13:44:06;5.82;;;3.85;;
70303;SDS011;57712;48.752;11.348;2022-09-03T13:46:46;5.20;;;3.30;;
70303;SDS011;57712;48.752;11.348;2022-09-03T13:52:34;5.25;;;3.10;;
70303;SDS011;57712;48.752;11.348;2022-09-03T13:55:10;5.47;;;3.70;;
70303;SDS011;57712;48.752;11.348;2022-09-03T14:00:42;7.00;;;3.40;;
70303;SDS011;57712;48.752;11.348;2022-09-03T14:08:41;5.90;;;3.28;;
70303;SDS011;57712;48.752;11.348;2022-09-03T14:11:31;5.47;;;3.03;;
70303;SDS011;57712;48.752;11.348;2022-09-03T14:14:11;6.78;;;4.30;;
70303;SDS011;57712;48.752;11.348;2022-09-03T14:25:20;6.13;;;3.20;;
70303;SDS011;57712;48.752;11.348;2022-09-03T14:27:49;5.20;;;2.65;;
70303;SDS011;57712;48.752;11.348;2022-09-03T14:35:34;5.30;;;3.38;;
70303;SDS011;57712;48.752;11.348;2022-09-03T14:40:55;5.22;;;3.13;;
70303;SDS011;57712;48.752;11.348;2022-09-03T14:49:33;8.02;;;4.15;;
70303;SDS011;57712;48.752;11.348;2022-09-03T14:55:41;4.25;;;1.48;;
70303;SDS011;57712;48.752;11.348;2022-09-03T15:01:25;4.00;;;1.02;;
70303;SDS011;57712;48.752;11.348;2022-09-03T15:09:37;4.55;;;1.42;;
70303;SDS011;57712;48.752;11.348;2022-09-03T15:15:04;3.53;;;1.38;;
70303;SDS011;57712;48.752;11.348;2022-09-03T15:20:45;3.60;;;1.02;;
70303;SDS011;57712;48.752;11.348;2022-09-03T15:34:14;4.35;;;1.10;;
70303;SDS011;57712;48.752;11.348;2022-09-03T15:36:51;6.68;;;1.95;;
70303;SDS011;57712;48.752;11.348;2022-09-03T15:39:36;24.77;;;7.10;;
70303;SDS011;57712;48.752;11.348;2022-09-03T15:42:09;3.90;;;1.35;;
70303;SDS011;57712;48.752;11.348;2022-09-03T15:44:46;4.13;;;1.27;;
70303;SDS011;57712;48.752;11.348;2022-09-03T15:50:28;5.70;;;1.50;;
70303;SDS011;57712;48.752;11.348;2022-09-03T15:58:41;9.10;;;1.95;;
70303;SDS011;57712;48.752;11.348;2022-09-03T16:04:06;3.67;;;0.98;;
70303;SDS011;57712;48.752;11.348;2022-09-03T16:06:51;5.10;;;0.73;;
70303;SDS011;57712;48.752;11.348;2022-09-03T16:15:08;3.30;;;0.90;;
70303;SDS011;57712;48.752;11.348;2022-09-03T16:17:48;3.03;;;0.75;;
70303;SDS011;57712;48.752;11.348;2022-09-03T16:20:26;3.40;;;0.80;;
70303;SDS011;57712;48.752;11.348;2022-09-03T16:28:20;3.92;;;0.95;;
70303;SDS011;57712;48.752;11.348;2022-09-03T16:39:00;4.05;;;1.67;;
70303;SDS011;57712;48.752;11.348;2022-09-03T16:41:56;3.95;;;1.30;;
70303;SDS011;57712;48.752;11.348;2022-09-03T16:44:34;4.20;;;1.13;;
70303;SDS011;57712;48.752;11.348;2022-09-03T16:50:14;4.47;;;1.67;;
70303;SDS011;57712;48.752;11.348;2022-09-03T16:53:09;5.25;;;1.98;;
70303;SDS011;57712;48.752;11.348;2022-09-03T17:31:30;4.70;;;1.20;;
70303;SDS011;57712;48.752;11.348;2022-09-03T17:42:45;3.50;;;1.37;;
70303;SDS011;57712;48.752;11.348;2022-09-03T17:48:06;3.40;;;0.73;;
70303;SDS011;57712;48.752;11.348;2022-09-03T17:50:53;4.03;;;1.15;;
70303;SDS011;57712;48.752;11.348;2022-09-03T17:53:33;3.92;;;1.40;;
70303;SDS011;57712;48.752;11.348;2022-09-03T17:56:24;4.83;;;1.70;;
70303;SDS011;57712;48.752;11.348;2022-09-03T17:59:01;3.97;;;1.27;;
70303;SDS011;57712;48.752;11.348;2022-09-03T18:01:34;4.30;;;1.33;;
70303;SDS011;57712;48.752;11.348;2022-09-03T18:04:16;3.95;;;1.25;;
70303;SDS011;57712;48.752;11.348;2022-09-03T18:06:54;4.68;;;1.70;;
70303;SDS011;57712;48.752;11.348;2022-09-03T18:12:08;3.78;;;1.55;;
70303;SDS011;57712;48.752;11.348;2022-09-03T18:14:55;4.18;;;1.60;;
70303;SDS011;57712;48.752;11.348;2022-09-03T18:20:04;3.92;;;1.17;;
70303;SDS011;57712;48.752;11.348;2022-09-03T18:25:56;4.18;;;1.27;;
70303;SDS011;57712;48.752;11.348;2022-09-03T18:32:00;4.20;;;1.38;;
70303;SDS011;57712;48.752;11.348;2022-09-03T18:34:45;5.93;;;1.70;;
70303;SDS011;57712;48.752;11.348;2022-09-03T18:37:33;3.90;;;1.20;;
70303;SDS011;57712;48.752;11.348;2022-09-03T18:40:24;4.78;;;1.25;;
70303;SDS011;57712;48.752;11.348;2022-09-03T18:43:20;4.78;;;1.58;;
70303;SDS011;57712;48.752;11.348;2022-09-03T18:46:39;3.80;;;1.35;;
70303;SDS011;57712;48.752;11.348;2022-09-03T18:50:01;4.13;;;1.73;;
70303;SDS011;57712;48.752;11.348;2022-09-03T18:52:58;4.40;;;1.43;;
70303;SDS011;57712;48.752;11.348;2022-09-03T18:55:58;3.95;;;1.30;;
70303;SDS011;57712;48.752;11.348;2022-09-03T18:59:19;4.63;;;1.98;;
70303;SDS011;57712;48.752;11.348;2022-09-03T19:02:13;4.03;;;1.20;;
70303;SDS011;57712;48.752;11.348;2022-09-03T19:11:57;4.95;;;2.10;;
70303;SDS011;57712;48.752;11.348;2022-09-03T19:14:55;4.65;;;2.10;;
70303;SDS011;57712;48.752;11.348;2022-09-03T19:21:02;6.40;;;2.30;;
70303;SDS011;57712;48.752;11.348;2022-09-03T19:24:01;5.20;;;2.10;;
70303;SDS011;57712;48.752;11.348;2022-09-03T19:26:58;5.75;;;2.70;;
70303;SDS011;57712;48.752;11.348;2022-09-03T19:30:19;5.53;;;2.42;;
70303;SDS011;57712;48.752;11.348;2022-09-03T19:36:35;5.35;;;2.30;;
70303;SDS011;57712;48.752;11.348;2022-09-03T19:42:39;5.70;;;2.10;;
70303;SDS011;57712;48.752;11.348;2022-09-03T19:45:28;4.50;;;1.75;;
70303;SDS011;57712;48.752;11.348;2022-09-03T19:54:51;5.00;;;2.07;;
70303;SDS011;57712;48.752;11.348;2022-09-03T19:57:39;6.22;;;2.30;;
70303;SDS011;57712;48.752;11.348;2022-09-03T20:00:27;5.35;;;2.47;;
70303;SDS011;57712;48.752;11.348;2022-09-03T20:03:13;4.97;;;2.00;;
70303;SDS011;57712;48.752;11.348;2022-09-03T20:06:00;5.53;;;1.90;;
70303;SDS011;57712;48.752;11.348;2022-09-03T20:08:47;4.73;;;2.03;;
70303;SDS011;57712;48.752;11.348;2022-09-03T20:11:35;6.00;;;1.90;;
70303;SDS011;57712;48.752;11.348;2022-09-03T20:14:05;4.18;;;1.65;;
70303;SDS011;57712;48.752;11.348;2022-09-03T20:16:41;4.50;;;1.52;;
70303;SDS011;57712;48.752;11.348;2022-09-03T20:22:31;4.10;;;1.60;;
70303;SDS011;57712;48.752;11.348;2022-09-03T20:30:44;6.30;;;2.25;;
70303;SDS011;57712;48.752;11.348;2022-09-03T20:33:19;5.55;;;2.72;;
70303;SDS011;57712;48.752;11.348;2022-09-03T20:36:03;5.77;;;1.73;;
70303;SDS011;57712;48.752;11.348;2022-09-03T20:52:12;6.35;;;2.40;;
70303;SDS011;57712;48.752;11.348;2022-09-03T20:55:01;5.90;;;2.78;;
70303;SDS011;57712;48.752;11.348;2022-09-03T21:00:23;5.45;;;2.60;;
70303;SDS011;57712;48.752;11.348;2022-09-03T21:08:53;6.18;;;2.50;;
70303;SDS011;57712;48.752;11.348;2022-09-03T21:25:45;6.47;;;2.72;;
70303;SDS011;57712;48.752;11.348;2022-09-03T21:28:21;6.25;;;2.75;;
70303;SDS011;57712;48.752;11.348;2022-09-03T21:30:58;5.60;;;2.37;;
70303;SDS011;57712;48.752;11.348;2022-09-03T21:33:28;7.22;;;2.88;;
70303;SDS011;57712;48.752;11.348;2022-09-03T21:36:11;5.78;;;2.40;;
70303;SDS011;57712;48.752;11.348;2022-09-03T21:38:44;6.32;;;2.67;;